createdAt,value
2023-08-28T00:00:35.928Z,81.82
2023-08-28T00:03:03.937Z,81.77
2023-08-28T00:05:31.739Z,81.61
2023-08-28T00:07:59.259Z,81.43
2023-08-28T00:10:26.805Z,81.58
2023-08-28T00:12:54.090Z,81.50
2023-08-28T00:15:23.531Z,81.86
2023-08-28T00:17:50.738Z,81.87
2023-08-28T00:20:18.326Z,81.84
2023-08-28T00:22:46.356Z,82.18
2023-08-28T00:25:13.831Z,81.81
2023-08-28T00:27:41.137Z,81.98
2023-08-28T00:30:10.547Z,81.98
2023-08-28T00:32:39.738Z,82.08
2023-08-28T00:35:07.705Z,82.02
2023-08-28T00:37:34.949Z,82.02
2023-08-28T00:40:02.242Z,82.24
2023-08-28T00:42:29.577Z,82.42
2023-08-28T00:44:56.771Z,82.51
2023-08-28T00:47:24.712Z,82.40
2023-08-28T00:49:53.665Z,82.71
2023-08-28T00:52:21.058Z,82.57
2023-08-28T00:54:48.872Z,82.54
2023-08-28T00:57:18.202Z,82.90
2023-08-28T00:59:45.914Z,82.80
2023-08-28T01:02:13.485Z,82.91
2023-08-28T01:04:40.944Z,83.11
2023-08-28T01:07:18.733Z,83.42
2023-08-28T01:09:56.176Z,83.36
2023-08-28T01:12:29.671Z,83.52
2023-08-28T01:15:04.207Z,83.33
2023-08-28T01:17:32.401Z,83.71
2023-08-28T01:20:01.088Z,83.54
2023-08-28T01:22:34.138Z,83.71
2023-08-28T01:25:07.112Z,83.60
2023-08-28T01:27:35.395Z,83.93
2023-08-28T01:30:07.611Z,84.04
2023-08-28T01:32:34.871Z,84.10
2023-08-28T01:35:05.330Z,84.16
2023-08-28T01:37:40.972Z,84.31
2023-08-28T01:40:11.206Z,84.44
2023-08-28T01:42:38.477Z,84.59
2023-08-28T01:45:07.782Z,84.63
2023-08-28T01:47:35.099Z,84.81
2023-08-28T01:50:02.343Z,84.89
2023-08-28T01:52:29.700Z,85.22
2023-08-28T01:54:56.993Z,85.05
2023-08-28T01:57:27.536Z,85.01
2023-08-28T01:59:56.057Z,85.28
2023-08-28T02:02:23.466Z,85.40
2023-08-28T02:04:50.831Z,85.22
2023-08-28T02:07:18.079Z,85.51
2023-08-28T02:09:45.495Z,85.54
2023-08-28T02:12:12.720Z,85.69
2023-08-28T02:14:41.288Z,85.92
2023-08-28T02:17:08.648Z,86.00
2023-08-28T02:19:35.939Z,86.19
2023-08-28T02:22:03.190Z,86.18
2023-08-28T02:24:30.475Z,86.33
2023-08-28T02:26:57.690Z,86.59
2023-08-28T02:29:24.965Z,86.71
2023-08-28T02:31:53.609Z,86.59
2023-08-28T02:34:20.807Z,86.55
2023-08-28T02:36:48.029Z,86.31
2023-08-28T02:39:15.265Z,86.46
2023-08-28T02:41:42.478Z,86.48
2023-08-28T02:44:09.677Z,86.41
2023-08-28T02:49:44.499Z,86.30
2023-08-28T02:52:12.098Z,86.09
2023-08-28T02:54:39.451Z,85.73
2023-08-28T02:57:06.666Z,85.59
2023-08-28T02:59:34.191Z,85.60
2023-08-28T03:02:01.483Z,85.57
2023-08-28T03:04:28.731Z,85.49
2023-08-28T03:06:57.393Z,85.80
2023-08-28T03:09:24.713Z,85.75
2023-08-28T03:11:51.877Z,85.70
2023-08-28T03:14:19.286Z,85.65
2023-08-28T03:16:46.496Z,85.52
2023-08-28T03:19:13.807Z,85.57
2023-08-28T03:21:44.055Z,85.45
2023-08-28T03:24:12.718Z,85.38
2023-08-28T03:26:39.972Z,85.26
2023-08-28T03:29:07.169Z,84.95
2023-08-28T03:31:34.640Z,84.73
2023-08-28T03:34:01.873Z,84.72
2023-08-28T03:36:29.164Z,84.59
2023-08-28T03:38:56.456Z,84.89
2023-08-28T03:41:25.081Z,84.77
2023-08-28T03:43:52.255Z,84.59
2023-08-28T03:46:19.494Z,84.47
2023-08-28T03:48:48.025Z,84.57
2023-08-28T03:51:15.251Z,84.61
2023-08-28T03:53:43.443Z,84.20
2023-08-28T03:56:11.181Z,83.87
2023-08-28T03:58:39.786Z,84.50
2023-08-28T04:01:07.209Z,83.34
2023-08-28T04:03:34.567Z,84.05
2023-08-28T04:06:01.857Z,84.73
2023-08-28T04:08:29.196Z,82.85
2023-08-28T04:10:58.746Z,83.07
2023-08-28T04:13:27.019Z,82.18
2023-08-28T04:15:55.702Z,81.10
2023-08-28T04:18:22.948Z,82.88
2023-08-28T04:20:50.788Z,81.02
2023-08-28T04:23:18.866Z,80.32
2023-08-28T04:25:46.194Z,80.76
2023-08-28T04:28:14.078Z,79.61
2023-08-28T04:30:42.100Z,78.26
2023-08-28T04:33:10.851Z,78.35
2023-08-28T04:35:38.226Z,79.10
2023-08-28T04:38:05.588Z,79.20
2023-08-28T04:45:24.569Z,80.90
2023-08-28T04:48:02.563Z,81.60
2023-08-28T04:50:59.674Z,81.41
2023-08-28T04:54:48.185Z,82.48
2023-08-28T04:57:30.480Z,82.66
2023-08-28T05:00:11.036Z,82.45
2023-08-28T05:06:56.280Z,82.93
2023-08-28T05:09:49.118Z,82.22
2023-08-28T05:12:24.520Z,83.97
2023-08-28T05:14:57.892Z,82.97
2023-08-28T05:17:31.463Z,83.49
2023-08-28T05:28:25.055Z,82.45
2023-08-28T05:30:59.892Z,81.51
2023-08-28T05:33:57.534Z,81.15
2023-08-28T05:36:48.905Z,82.07
2023-08-28T05:39:33.502Z,82.68
2023-08-28T05:42:17.247Z,82.71
2023-08-28T05:53:08.779Z,82.82
2023-08-28T05:59:35.825Z,81.83
2023-08-28T06:30:43.355Z,80.17
2023-08-28T06:33:10.692Z,80.22
2023-08-28T06:35:38.562Z,80.18
2023-08-28T06:38:05.768Z,79.68
2023-08-28T06:40:33.004Z,80.21
2023-08-28T06:43:00.599Z,80.47
2023-08-28T06:45:28.076Z,80.18
2023-08-28T06:47:58.854Z,80.42
2023-08-28T06:50:26.215Z,80.16
2023-08-28T06:52:54.898Z,79.81
2023-08-28T06:55:22.374Z,80.17
2023-08-28T06:57:50.293Z,80.01
2023-08-28T07:00:18.102Z,80.07
2023-08-28T07:02:45.389Z,80.09
2023-08-28T07:05:14.168Z,80.30
2023-08-28T07:07:41.448Z,79.24
2023-08-28T07:10:09.274Z,79.05
2023-08-28T07:12:36.605Z,79.31
2023-08-28T07:15:50.989Z,78.85
2023-08-28T07:18:19.797Z,77.65
2023-08-28T07:20:47.039Z,77.74
2023-08-28T07:23:14.332Z,78.61
2023-08-28T07:25:41.633Z,77.92
2023-08-28T07:28:10.263Z,78.66
2023-08-28T07:30:37.623Z,79.24
2023-08-28T07:33:05.837Z,79.30
2023-08-28T07:35:37.651Z,79.59
2023-08-28T07:38:06.537Z,79.51
2023-08-28T07:40:34.522Z,79.34
2023-08-28T07:43:02.500Z,79.28
2023-08-28T07:45:30.706Z,79.04
2023-08-28T07:47:58.218Z,78.69
2023-08-28T07:50:25.604Z,78.51
2023-08-28T07:52:54.363Z,78.05
2023-08-28T07:55:21.830Z,77.69
2023-08-28T07:57:49.136Z,77.64
2023-08-28T08:00:17.971Z,77.42
2023-08-28T08:02:45.232Z,77.64
2023-08-28T08:05:12.585Z,77.04
2023-08-28T08:19:53.761Z,75.69
2023-08-28T08:22:21.097Z,76.89
2023-08-28T08:24:48.281Z,76.27
2023-08-28T08:27:15.550Z,74.63
2023-08-28T08:29:44.297Z,76.08
2023-08-28T08:32:11.469Z,76.85
2023-08-28T08:34:38.643Z,75.55
2023-08-28T08:37:07.632Z,75.79
2023-08-28T08:39:34.968Z,75.68
2023-08-28T08:42:02.544Z,76.04
2023-08-28T08:44:31.321Z,75.68
2023-08-28T08:46:59.382Z,75.68
2023-08-28T08:49:28.548Z,75.13
2023-08-28T08:52:00.645Z,75.15
2023-08-28T08:54:35.884Z,75.36
2023-08-28T08:57:08.329Z,74.70
2023-08-28T08:59:36.278Z,74.79
2023-08-28T09:02:04.849Z,75.06
2023-08-28T09:04:33.968Z,75.19
2023-08-28T09:07:03.943Z,74.41
2023-08-28T09:09:34.109Z,74.84
2023-08-28T09:12:01.347Z,74.72
2023-08-28T09:14:29.744Z,74.15
2023-08-28T09:16:57.021Z,74.12
2023-08-28T09:19:24.429Z,73.76
2023-08-28T09:21:51.733Z,73.71
2023-08-28T09:24:22.845Z,73.06
2023-08-28T09:26:55.262Z,73.67
2023-08-28T09:29:23.737Z,73.30
2023-08-28T09:31:52.568Z,72.53
2023-08-28T09:34:22.988Z,71.95
2023-08-28T09:36:50.215Z,72.07
2023-08-28T09:39:17.641Z,72.16
2023-08-28T09:41:48.075Z,71.71
2023-08-28T09:44:18.038Z,71.78
2023-08-28T09:46:45.948Z,71.64
2023-08-28T09:49:14.941Z,71.96
2023-08-28T09:51:43.309Z,72.00
2023-08-28T09:54:11.945Z,71.87
2023-08-28T09:56:40.360Z,71.21
2023-08-28T09:59:08.477Z,70.68
2023-08-28T10:01:38.547Z,70.62
2023-08-28T10:04:07.421Z,70.40
2023-08-28T10:06:39.502Z,70.40
2023-08-28T10:09:12.161Z,69.82
2023-08-28T10:11:40.772Z,70.14
2023-08-28T10:14:08.432Z,69.85
2023-08-28T10:16:42.676Z,69.61
2023-08-28T10:19:18.316Z,69.94
2023-08-28T10:21:48.955Z,69.88
2023-08-28T10:24:18.931Z,69.75
2023-08-28T10:26:48.271Z,69.88
2023-08-28T10:29:18.670Z,69.24
2023-08-28T10:31:47.774Z,69.39
2023-08-28T10:34:16.816Z,69.14
2023-08-28T10:39:18.408Z,68.96
2023-08-28T10:41:47.498Z,69.33
2023-08-28T10:44:15.898Z,68.86
2023-08-28T10:46:43.323Z,68.57
2023-08-28T10:49:13.226Z,68.37
2023-08-28T10:51:45.941Z,70.22
2023-08-28T10:54:13.294Z,69.98
2023-08-28T10:56:40.973Z,69.22
2023-08-28T10:59:25.458Z,69.40
2023-08-28T11:01:53.943Z,69.40
2023-08-28T11:04:23.732Z,69.52
2023-08-28T11:06:51.670Z,69.07
2023-08-28T11:09:38.514Z,68.63
2023-08-28T11:12:25.296Z,68.33
2023-08-28T11:15:04.307Z,67.80
2023-08-28T11:17:33.052Z,68.01
2023-08-28T11:20:10.163Z,67.50
2023-08-28T11:22:39.439Z,66.70
2023-08-28T11:25:08.831Z,66.34
2023-08-28T11:27:43.779Z,66.87
2023-08-28T11:30:12.491Z,66.18
2023-08-28T11:32:42.144Z,64.99
2023-08-28T11:35:14.647Z,65.49
2023-08-28T11:37:47.444Z,64.68
2023-08-28T11:40:18.447Z,63.80
2023-08-28T11:42:47.816Z,64.10
2023-08-28T11:45:21.497Z,63.84
2023-08-28T11:47:50.815Z,63.54
2023-08-28T11:50:20.177Z,64.05
2023-08-28T11:52:48.754Z,65.13
2023-08-28T11:55:16.229Z,66.24
2023-08-28T11:57:44.782Z,65.74
2023-08-28T12:00:17.300Z,65.39
2023-08-28T12:02:48.316Z,64.93
2023-08-28T12:05:17.457Z,64.71
2023-08-28T12:07:47.314Z,65.89
2023-08-28T12:10:16.635Z,64.56
2023-08-28T12:12:44.040Z,62.36
2023-08-28T12:15:11.843Z,63.13
2023-08-28T12:17:39.980Z,62.33
2023-08-28T12:20:17.510Z,64.07
2023-08-28T12:22:47.119Z,65.40
2023-08-28T12:25:14.615Z,63.82
2023-08-28T12:27:41.954Z,61.66
2023-08-28T12:30:19.266Z,60.95
2023-08-28T12:32:52.500Z,61.49
2023-08-28T12:35:22.190Z,60.09
2023-08-28T12:37:51.512Z,60.03
2023-08-28T12:40:18.829Z,60.57
2023-08-28T12:42:46.997Z,59.93
2023-08-28T12:45:14.373Z,59.45
2023-08-28T12:47:41.912Z,60.37
2023-08-28T12:50:13.521Z,60.24
2023-08-28T12:52:42.239Z,61.98
2023-08-28T12:55:11.097Z,62.30
2023-08-28T12:57:38.306Z,63.44
2023-08-28T13:00:08.852Z,64.12
2023-08-28T13:02:36.460Z,64.61
2023-08-28T13:05:04.023Z,64.93
2023-08-28T13:07:31.336Z,65.55
2023-08-28T13:09:58.537Z,65.21
2023-08-28T13:12:27.112Z,66.16
2023-08-28T13:14:54.289Z,66.26
2023-08-28T13:17:22.376Z,66.10
2023-08-28T13:19:49.632Z,65.85
2023-08-28T13:22:16.819Z,66.67
2023-08-28T13:24:45.077Z,67.06
2023-08-28T13:27:13.167Z,66.96
2023-08-28T13:29:41.737Z,67.42
2023-08-28T13:32:09.004Z,67.70
2023-08-28T13:34:36.313Z,66.75
2023-08-28T13:37:06.974Z,66.94
2023-08-28T13:39:34.434Z,67.24
2023-08-28T13:42:01.683Z,66.99
2023-08-28T13:44:31.375Z,66.87
2023-08-28T13:47:00.361Z,67.29
2023-08-28T13:49:27.608Z,67.32
2023-08-28T13:51:54.798Z,66.91
2023-08-28T13:54:22.112Z,66.99
2023-08-28T13:56:49.407Z,66.97
2023-08-28T13:59:16.681Z,66.76
2023-08-28T14:01:43.989Z,67.59
2023-08-28T14:04:13.125Z,67.28
2023-08-28T14:06:40.293Z,67.77
2023-08-28T14:09:08.023Z,68.28
2023-08-28T14:11:35.234Z,68.62
2023-08-28T14:14:02.397Z,68.84
2023-08-28T14:16:29.610Z,69.23
2023-08-28T14:18:56.865Z,69.32
2023-08-28T14:21:25.503Z,69.76
2023-08-28T14:23:52.757Z,69.68
2023-08-28T14:26:22.215Z,69.83
2023-08-28T14:28:49.453Z,69.67
2023-08-28T14:31:16.786Z,69.75
2023-08-28T14:33:44.046Z,70.49
2023-08-28T14:36:11.262Z,70.39
2023-08-28T14:38:39.909Z,70.84
2023-08-28T14:41:07.143Z,70.85
2023-08-28T14:43:34.476Z,70.44
2023-08-28T14:46:01.762Z,70.45
2023-08-28T14:48:29.070Z,70.81
2023-08-28T14:50:56.601Z,70.15
2023-08-28T14:53:23.895Z,70.39
2023-08-28T14:55:53.473Z,70.20
2023-08-28T14:58:21.648Z,70.51
2023-08-28T15:00:51.285Z,70.26
2023-08-28T15:03:19.467Z,70.15
2023-08-28T15:05:46.866Z,70.31
2023-08-28T15:08:17.738Z,70.33
2023-08-28T15:10:45.411Z,70.73
2023-08-28T15:13:14.128Z,70.89
2023-08-28T15:15:42.393Z,71.01
2023-08-28T15:18:09.936Z,71.51
2023-08-28T15:20:37.303Z,71.70
2023-08-28T15:23:05.277Z,71.47
2023-08-28T15:25:32.963Z,71.03
2023-08-28T15:28:00.221Z,71.29
2023-08-28T15:30:31.125Z,70.84
2023-08-28T15:32:58.646Z,71.17
2023-08-28T15:35:26.196Z,71.26
2023-08-28T15:37:53.576Z,70.87
2023-08-28T15:40:22.283Z,71.02
2023-08-28T15:42:49.589Z,71.21
2023-08-28T15:45:16.930Z,71.40
2023-08-28T15:47:47.673Z,71.53
2023-08-28T15:50:15.386Z,71.77
2023-08-28T15:52:42.842Z,72.04
2023-08-28T15:55:10.519Z,71.98
2023-08-28T15:57:37.921Z,72.03
2023-08-28T16:00:08.647Z,72.16
2023-08-28T16:02:36.183Z,72.63
2023-08-28T16:05:09.446Z,72.65
2023-08-28T16:07:36.698Z,73.52
2023-08-28T16:10:04.306Z,73.89
2023-08-28T16:12:31.750Z,74.17
2023-08-28T16:14:59.711Z,74.42
2023-08-28T16:17:26.939Z,74.75
2023-08-28T16:19:54.210Z,74.78
2023-08-28T16:22:22.837Z,75.06
2023-08-28T16:24:50.098Z,75.56
2023-08-28T16:27:17.331Z,75.94
2023-08-28T16:29:44.724Z,75.87
2023-08-28T16:32:12.026Z,76.46
2023-08-28T16:34:39.268Z,76.83
2023-08-28T16:37:06.743Z,76.50
2023-08-28T16:39:35.558Z,76.23
2023-08-28T16:42:02.758Z,76.35
2023-08-28T16:44:30.123Z,76.06
2023-08-28T16:46:57.296Z,76.27
2023-08-28T16:49:24.523Z,76.39
2023-08-28T16:51:51.835Z,76.19
2023-08-28T16:54:19.096Z,76.35
2023-08-28T16:56:47.817Z,76.47
2023-08-28T16:59:15.074Z,77.00
2023-08-28T17:01:42.361Z,76.77
2023-08-28T17:04:09.684Z,76.91
2023-08-28T17:06:40.947Z,77.05
2023-08-28T17:09:14.161Z,77.25
2023-08-28T17:11:41.395Z,77.27
2023-08-28T17:14:10.192Z,77.07
2023-08-28T17:16:37.747Z,77.22
2023-08-28T17:19:05.601Z,77.37
2023-08-28T17:21:32.837Z,77.24
2023-08-28T17:24:00.067Z,77.46
2023-08-28T17:26:27.298Z,77.44
2023-08-28T17:28:57.788Z,77.90
2023-08-28T17:31:26.654Z,78.27
2023-08-28T17:33:54.006Z,78.45
2023-08-28T17:36:22.767Z,78.61
2023-08-28T17:38:56.955Z,79.06
2023-08-28T17:41:24.227Z,79.37
2023-08-28T17:43:51.539Z,79.68
2023-08-28T17:46:20.112Z,80.25
2023-08-28T17:48:48.773Z,80.41
2023-08-28T17:51:16.236Z,80.53
2023-08-28T17:53:43.667Z,80.87
2023-08-28T17:56:10.906Z,80.88
2023-08-28T17:58:38.066Z,81.07
2023-08-28T18:01:05.555Z,81.08
2023-08-28T18:03:38.859Z,80.98
2023-08-28T18:06:10.159Z,80.47
2023-08-28T18:08:37.723Z,80.26
2023-08-28T18:11:05.118Z,80.24
2023-08-28T18:13:32.333Z,80.33
2023-08-28T18:15:59.623Z,80.46
2023-08-28T18:18:27.121Z,80.20
2023-08-28T18:20:56.498Z,80.08
2023-08-28T18:23:26.700Z,80.33
2023-08-28T18:25:55.612Z,81.15
2023-08-28T18:28:23.861Z,82.98
2023-08-28T18:31:00.276Z,90.79
2023-08-28T18:33:27.863Z,89.73
2023-08-28T18:35:55.202Z,91.37
2023-08-28T18:38:22.523Z,99.99
2023-08-28T18:40:52.206Z,99.99
2023-08-28T18:43:19.771Z,92.21
2023-08-28T18:45:47.612Z,92.42
2023-08-28T18:48:15.380Z,92.55
